Date,TemperatureHighF,TemperatureAvgF,TemperatureLowF,DewpointHighF,DewpointAvgF,DewpointLowF,HumidityHigh,HumidityAvg,HumidityLow,PressureMaxIn,PressureMinIn,WindSpeedMaxMPH,WindSpeedAvgMPH,GustSpeedMaxMPH,PrecipitationSumIn
2013-9-1,80,71,64,72,52,30,89,58,23,29.91,29.74,5,1,7,0.08
2013-9-2,66,64,61,51,35,29,65,36,26,29.92,29.73,17,5,19,1.76
2013-9-3,76,68,64,71,46,32,90,48,27,29.75,29.68,8,2,11,0.01
2013-9-4,77,68,61,64,56,30,90,68,27,29.86,29.71,10,4,15,0.00
2013-9-5,65,59,51,59,52,45,89,78,51,30.11,29.83,9,2,13,0.27
2013-9-6,67,55,43,55,45,32,89,71,41,30.20,30.02,10,3,14,0.00
2013-9-7,69,62,51,60,55,41,89,80,58,30.03,29.77,11,3,13,0.00
2013-9-8,65,59,47,58,49,40,88,70,49,30.03,29.68,19,5,25,0.37
2013-9-9,63,54,40,56,46,34,89,76,48,30.19,30.04,11,4,17,0.00
2013-9-10,66,61,57,61,52,24,88,76,24,30.11,30.03,12,4,21,0.00
2013-9-11,76,68,60,72,49,22,88,58,23,30.04,29.88,8,3,14,0.13
2013-9-12,75,67,64,70,55,36,88,67,35,29.98,29.64,9,4,15,0.19
2013-9-13,69,64,61,65,44,28,89,53,26,29.67,29.56,12,2,14,1.22
2013-9-14,70,62,54,61,55,44,90,77,61,29.98,29.67,8,3,12,0.00
2013-9-15,65,57,47,55,49,29,90,77,49,30.11,29.98,13,3,17,0.00
2013-9-16,64,56,46,56,47,36,90,74,49,30.23,29.94,12,4,20,0.00
2013-9-17,63,51,40,48,42,36,90,72,49,30.37,30.23,10,4,15,0.00
2013-9-18,69,55,42,54,46,30,91,73,44,30.28,30.08,11,2,14,0.00
2013-9-19,74,58,45,56,47,32,90,70,43,30.10,30.00,10,2,14,0.00
2013-9-20,72,57,47,58,47,28,90,72,52,30.09,30.00,6,0,6,0.00